createdAt,value
2022-10-18T00:00:53.087Z,8.97
2022-10-18T00:03:20.824Z,6.50
2022-10-18T00:05:49.088Z,5.47
2022-10-18T00:08:17.299Z,8.73
2022-10-18T00:10:45.390Z,6.97
2022-10-18T00:13:14.717Z,8.17
2022-10-18T00:15:49.943Z,6.43
2022-10-18T00:18:17.683Z,8.17
2022-10-18T00:20:45.435Z,6.40
2022-10-18T00:23:13.389Z,7.93
2022-10-18T00:25:41.068Z,8.60
2022-10-18T00:28:08.791Z,7.43
2022-10-18T00:30:38.003Z,8.73
2022-10-18T00:33:05.724Z,7.70
2022-10-18T00:35:36.085Z,9.65
2022-10-18T00:38:03.831Z,8.07
2022-10-18T00:40:31.541Z,14.60
2022-10-18T00:42:59.275Z,9.20
2022-10-18T00:45:27.211Z,8.88
2022-10-18T00:48:01.125Z,12.63
2022-10-18T00:50:33.999Z,10.20
2022-10-18T00:53:04.238Z,13.40
2022-10-18T00:55:35.024Z,9.40
2022-10-18T00:58:02.963Z,11.75
2022-10-18T01:00:30.773Z,10.57
2022-10-18T01:03:00.465Z,11.40
2022-10-18T01:05:28.491Z,12.82
2022-10-18T01:08:25.510Z,11.10
2022-10-18T01:11:02.195Z,10.35
2022-10-18T01:13:43.819Z,10.07
2022-10-18T01:16:21.177Z,8.80
2022-10-18T01:19:00.003Z,10.35
2022-10-18T01:21:39.352Z,13.07
2022-10-18T01:24:37.978Z,11.02
2022-10-18T01:27:28.734Z,8.98
2022-10-18T01:30:11.463Z,11.05
2022-10-18T01:32:45.772Z,10.02
2022-10-18T01:35:17.927Z,8.93
2022-10-18T01:37:49.504Z,11.55
2022-10-18T01:40:20.556Z,8.88
2022-10-18T01:42:50.687Z,10.25
2022-10-18T01:45:20.122Z,10.40
2022-10-18T01:47:49.731Z,11.55
2022-10-18T01:50:29.974Z,17.08
2022-10-18T01:52:58.307Z,10.10
2022-10-18T01:55:31.472Z,10.35
2022-10-18T01:58:06.931Z,12.25
2022-10-18T02:00:41.052Z,8.23
2022-10-18T02:03:18.284Z,9.60
2022-10-18T02:05:52.552Z,9.05
2022-10-18T02:08:29.257Z,12.00
2022-10-18T02:11:01.860Z,11.25
2022-10-18T02:13:35.328Z,10.52
2022-10-18T02:16:08.935Z,8.63
2022-10-18T02:18:42.446Z,12.20
2022-10-18T02:21:14.559Z,9.23
2022-10-18T02:23:44.327Z,9.85
2022-10-18T02:26:12.082Z,13.98
2022-10-18T02:28:40.329Z,9.23
2022-10-18T02:31:16.631Z,9.20
2022-10-18T02:33:51.743Z,10.48
2022-10-18T02:36:23.382Z,8.38
2022-10-18T02:38:55.471Z,9.93
2022-10-18T02:41:25.679Z,10.25
2022-10-18T02:43:53.692Z,10.10
2022-10-18T02:46:21.688Z,10.07
2022-10-18T02:48:50.946Z,14.20
2022-10-18T02:51:18.975Z,10.47
2022-10-18T02:53:46.699Z,9.40
2022-10-18T02:56:14.402Z,11.10
2022-10-18T02:58:42.102Z,9.18
2022-10-18T03:01:09.885Z,10.30
2022-10-18T03:03:37.674Z,9.02
2022-10-18T03:06:07.122Z,10.03
2022-10-18T03:08:34.881Z,11.75
2022-10-18T03:11:02.605Z,10.15
2022-10-18T03:16:03.038Z,10.90
2022-10-18T03:18:30.811Z,11.27
2022-10-18T03:20:58.529Z,14.93
2022-10-18T03:23:27.810Z,10.67
2022-10-18T03:25:55.531Z,12.95
2022-10-18T03:28:23.296Z,10.32
2022-10-18T03:30:51.119Z,10.97
2022-10-18T03:33:18.869Z,9.00
2022-10-18T03:35:46.575Z,9.20
2022-10-18T03:38:14.293Z,10.17
2022-10-18T03:40:43.352Z,10.48
2022-10-18T03:43:11.101Z,10.63
2022-10-18T03:45:38.856Z,10.23
2022-10-18T03:48:07.188Z,11.70
2022-10-18T03:50:35.095Z,11.25
2022-10-18T03:53:02.906Z,13.53
2022-10-18T03:55:30.611Z,10.63
2022-10-18T03:57:59.737Z,9.25
2022-10-18T04:00:27.540Z,11.23
2022-10-18T04:02:56.095Z,9.17
2022-10-18T04:05:26.813Z,10.05
2022-10-18T04:07:54.791Z,10.48
2022-10-18T04:10:22.556Z,14.27
2022-10-18T04:12:50.647Z,10.53
2022-10-18T04:15:19.863Z,12.37
2022-10-18T04:17:47.848Z,9.53
2022-10-18T04:20:15.859Z,12.10
2022-10-18T04:22:43.591Z,10.73
2022-10-18T04:25:11.287Z,9.73
2022-10-18T04:27:39.021Z,13.03
2022-10-18T04:30:07.842Z,12.50
2022-10-18T04:32:37.186Z,12.20
2022-10-18T04:35:06.186Z,10.18
2022-10-18T04:37:34.143Z,14.20
2022-10-18T04:40:02.234Z,11.43
2022-10-18T04:42:30.035Z,9.82
2022-10-18T04:44:57.741Z,11.10
2022-10-18T04:47:25.515Z,14.03
2022-10-18T04:49:54.597Z,13.20
2022-10-18T04:52:22.323Z,14.55
2022-10-18T04:54:50.246Z,12.13
2022-10-18T04:57:18.056Z,15.57
2022-10-18T04:59:46.059Z,10.23
2022-10-18T05:02:13.813Z,10.18
2022-10-18T05:04:41.558Z,10.87
2022-10-18T05:07:10.767Z,11.33
2022-10-18T05:09:38.472Z,9.43
2022-10-18T05:12:06.382Z,10.93
2022-10-18T05:14:34.114Z,15.27
2022-10-18T05:17:01.834Z,12.05
2022-10-18T05:19:29.555Z,14.17
2022-10-18T05:21:57.306Z,11.70
2022-10-18T05:24:27.770Z,12.48
2022-10-18T05:26:55.890Z,12.43
2022-10-18T05:29:24.003Z,11.43
2022-10-18T05:31:51.951Z,12.03
2022-10-18T05:34:20.629Z,15.00
2022-10-18T05:36:49.368Z,13.05
2022-10-18T05:39:17.067Z,13.83
2022-10-18T05:41:46.132Z,13.68
2022-10-18T05:44:13.847Z,19.00
2022-10-18T05:46:41.629Z,14.05
2022-10-18T05:49:11.143Z,13.52
2022-10-18T05:51:38.868Z,16.42
2022-10-18T05:54:06.760Z,13.47
2022-10-18T05:56:34.576Z,13.67
2022-10-18T05:59:05.079Z,14.57
2022-10-18T06:01:32.794Z,13.43
2022-10-18T06:04:00.527Z,15.13
2022-10-18T06:06:28.210Z,18.63
2022-10-18T06:08:55.973Z,13.23
2022-10-18T06:11:23.979Z,13.60
2022-10-18T06:13:53.225Z,14.45
2022-10-18T06:16:27.243Z,12.03
2022-10-18T06:18:59.793Z,14.87
2022-10-18T06:21:27.567Z,15.10
2022-10-18T06:23:57.223Z,15.90
2022-10-18T06:26:25.610Z,13.52
2022-10-18T06:28:53.486Z,12.90
2022-10-18T06:31:22.681Z,17.17
2022-10-18T06:33:51.102Z,14.63
2022-10-18T06:36:21.984Z,13.03
2022-10-18T06:38:49.891Z,13.53
2022-10-18T06:41:19.185Z,14.07
2022-10-18T06:43:49.580Z,14.97
2022-10-18T06:46:17.423Z,15.23
2022-10-18T06:48:47.173Z,14.60
2022-10-18T06:51:15.178Z,14.07
2022-10-18T06:53:53.458Z,15.82
2022-10-18T06:56:31.067Z,14.60
2022-10-18T06:59:01.426Z,13.67
2022-10-18T07:01:29.366Z,16.02
2022-10-18T07:03:59.835Z,15.73
2022-10-18T07:06:27.561Z,16.03
2022-10-18T07:08:55.398Z,14.97
2022-10-18T07:11:25.398Z,17.43
2022-10-18T07:13:55.022Z,15.50
2022-10-18T07:16:23.092Z,16.75
2022-10-18T07:18:52.063Z,17.60
2022-10-18T07:21:23.714Z,16.20
2022-10-18T07:23:52.529Z,16.00
2022-10-18T07:26:22.362Z,17.17
2022-10-18T07:28:54.144Z,15.95
2022-10-18T07:31:22.633Z,16.42
2022-10-18T07:33:50.405Z,17.48
2022-10-18T07:36:18.245Z,15.23
2022-10-18T07:38:47.301Z,15.43
2022-10-18T07:41:15.873Z,15.57
2022-10-18T07:43:45.752Z,18.40
2022-10-18T07:46:14.977Z,16.47
2022-10-18T07:48:42.704Z,16.27
2022-10-18T07:51:11.334Z,14.20
2022-10-18T07:53:39.460Z,17.27
2022-10-18T07:56:15.920Z,15.07
2022-10-18T07:58:44.285Z,21.40
2022-10-18T08:01:12.439Z,13.50
2022-10-18T08:03:40.875Z,14.57
2022-10-18T08:06:10.834Z,12.70
2022-10-18T08:08:39.960Z,16.33
2022-10-18T08:11:11.550Z,16.67
2022-10-18T08:13:39.344Z,19.50
2022-10-18T08:16:09.076Z,19.88
2022-10-18T08:18:37.806Z,19.92
2022-10-18T08:21:07.927Z,21.63
2022-10-18T08:23:36.656Z,21.15
2022-10-18T08:26:05.468Z,24.23
2022-10-18T08:28:36.663Z,27.05
2022-10-18T08:31:05.312Z,24.42
2022-10-18T08:33:33.957Z,22.52
2022-10-18T08:36:05.664Z,25.30
2022-10-18T08:38:34.404Z,26.30
2022-10-18T08:41:14.383Z,27.63
2022-10-18T08:43:48.359Z,36.90
2022-10-18T08:46:16.143Z,44.08
2022-10-18T08:48:48.371Z,41.58
2022-10-18T08:51:28.324Z,44.90
2022-10-18T08:54:03.807Z,51.47
2022-10-18T08:56:33.804Z,58.30
2022-10-18T08:59:04.887Z,57.22
2022-10-18T09:01:45.699Z,57.23
2022-10-18T09:04:31.266Z,65.88
2022-10-18T09:07:16.258Z,58.05
2022-10-18T09:09:51.340Z,54.95
2022-10-18T09:12:35.984Z,66.80
2022-10-18T09:15:28.959Z,56.95
2022-10-18T09:18:10.248Z,55.30
2022-10-18T09:20:48.871Z,57.00
2022-10-18T09:23:20.907Z,54.87
2022-10-18T09:25:50.726Z,54.27
2022-10-18T09:28:32.606Z,58.65
2022-10-18T09:31:10.948Z,62.00
2022-10-18T09:33:46.865Z,61.78
2022-10-18T09:36:20.271Z,64.20
2022-10-18T09:38:50.880Z,64.13
2022-10-18T09:41:24.071Z,56.30
2022-10-18T09:43:58.033Z,62.15
2022-10-18T09:46:32.716Z,67.07
2022-10-18T09:49:05.242Z,68.60
2022-10-18T09:51:37.946Z,68.32
2022-10-18T09:54:21.186Z,65.95
2022-10-18T09:56:51.976Z,73.50
2022-10-18T09:59:33.415Z,72.63
2022-10-18T10:02:02.641Z,67.43
2022-10-18T10:04:30.670Z,69.60
2022-10-18T10:07:01.267Z,75.00
2022-10-18T10:09:30.839Z,69.83
2022-10-18T10:11:59.581Z,69.40
2022-10-18T10:14:30.277Z,69.80
2022-10-18T10:17:02.163Z,65.43
2022-10-18T10:19:34.379Z,67.60
2022-10-18T10:22:06.447Z,70.07
2022-10-18T10:24:42.923Z,68.38
2022-10-18T10:27:19.376Z,66.70
2022-10-18T10:29:57.671Z,62.10
2022-10-18T10:32:32.141Z,66.25
2022-10-18T10:35:01.283Z,60.10
2022-10-18T10:37:35.765Z,66.43
2022-10-18T10:40:28.569Z,61.57
2022-10-18T10:43:36.643Z,54.83
2022-10-18T10:46:09.620Z,55.42
2022-10-18T10:48:46.339Z,49.27
2022-10-18T10:51:18.206Z,49.95
2022-10-18T10:53:52.379Z,52.40
2022-10-18T10:56:26.660Z,46.17
2022-10-18T10:58:56.688Z,52.37
2022-10-18T11:01:31.505Z,50.37
2022-10-18T11:04:01.769Z,48.63
2022-10-18T11:06:40.330Z,45.95
2022-10-18T11:09:19.131Z,49.67
2022-10-18T11:11:59.227Z,56.22
2022-10-18T11:14:31.463Z,53.63
2022-10-18T11:17:08.505Z,56.97
2022-10-18T11:19:43.947Z,55.05
2022-10-18T11:22:18.468Z,55.35
2022-10-18T11:24:46.215Z,50.97
2022-10-18T11:27:23.687Z,47.95
2022-10-18T11:30:04.260Z,51.53
2022-10-18T11:32:41.787Z,50.70
2022-10-18T11:35:27.722Z,59.25
2022-10-18T11:38:10.292Z,55.00
2022-10-18T11:40:54.906Z,58.08
2022-10-18T11:43:34.434Z,54.38
2022-10-18T11:46:25.291Z,59.30
2022-10-18T11:49:16.127Z,57.60
2022-10-18T11:52:07.830Z,63.20
2022-10-18T11:54:53.368Z,60.15
2022-10-18T11:57:35.599Z,60.08
2022-10-18T12:00:16.106Z,68.03
2022-10-18T12:03:01.599Z,64.07
2022-10-18T12:05:30.915Z,66.88
2022-10-18T12:08:03.549Z,59.38
2022-10-18T12:10:45.771Z,57.38
2022-10-18T12:13:28.928Z,58.08
2022-10-18T12:15:56.929Z,60.80
2022-10-18T12:18:26.789Z,58.22
2022-10-18T12:20:57.125Z,62.42
2022-10-18T12:23:35.602Z,67.03
2022-10-18T12:26:06.931Z,72.47
2022-10-18T12:28:45.975Z,84.22
2022-10-18T12:31:21.891Z,84.20
2022-10-18T12:33:53.471Z,89.63
2022-10-18T12:36:42.060Z,91.80
2022-10-18T12:39:21.532Z,87.88
2022-10-18T12:41:58.482Z,89.03
2022-10-18T12:44:32.143Z,85.50
2022-10-18T12:47:01.901Z,81.60
2022-10-18T12:49:32.281Z,81.60
2022-10-18T12:52:02.756Z,82.00
2022-10-18T12:54:32.899Z,73.05
2022-10-18T12:57:03.571Z,71.97
2022-10-18T12:59:52.180Z,63.47
2022-10-18T13:02:29.187Z,64.30
2022-10-18T13:05:02.244Z,61.03
2022-10-18T13:07:40.931Z,53.13
2022-10-18T13:10:42.224Z,51.17
2022-10-18T13:13:44.696Z,50.43
2022-10-18T13:16:30.416Z,40.90
2022-10-18T13:19:00.435Z,40.67
2022-10-18T13:21:43.175Z,42.03
2022-10-18T13:24:27.711Z,39.40
2022-10-18T13:30:20.721Z,33.15
2022-10-18T13:32:54.925Z,33.95
2022-10-18T13:35:52.112Z,31.40
2022-10-18T13:38:33.813Z,31.20
2022-10-18T13:41:03.503Z,31.02
2022-10-18T13:44:21.087Z,35.05
2022-10-18T13:47:34.288Z,30.05
2022-10-18T13:50:16.481Z,27.50
2022-10-18T13:53:03.185Z,25.70
2022-10-18T13:55:45.539Z,29.65
2022-10-18T13:58:23.385Z,27.40
2022-10-18T14:01:03.841Z,22.63
2022-10-18T14:03:57.596Z,25.27
2022-10-18T14:06:29.920Z,22.48
2022-10-18T14:09:09.660Z,22.00
2022-10-18T14:11:53.531Z,21.48
2022-10-18T14:14:34.290Z,20.17
2022-10-18T14:17:17.775Z,18.48
2022-10-18T14:19:53.378Z,17.80
2022-10-18T14:22:28.051Z,17.13
2022-10-18T14:25:02.739Z,16.85
2022-10-18T14:27:42.069Z,15.40
2022-10-18T14:33:11.716Z,14.82
2022-10-18T14:35:55.358Z,16.13
2022-10-18T14:38:28.035Z,15.77
2022-10-18T14:41:18.738Z,16.67
2022-10-18T14:43:55.919Z,13.70
2022-10-18T14:46:49.886Z,16.50
2022-10-18T14:49:27.604Z,16.15
2022-10-18T14:52:03.779Z,16.33
2022-10-18T14:55:05.098Z,18.40
2022-10-18T14:57:43.820Z,14.00
2022-10-18T15:03:19.293Z,16.95
2022-10-18T15:08:54.856Z,11.70
2022-10-18T15:11:35.222Z,12.02
2022-10-18T15:14:16.189Z,11.18
2022-10-18T15:17:01.166Z,10.35
2022-10-18T15:19:33.841Z,13.18
2022-10-18T15:22:30.618Z,12.10
2022-10-18T15:25:34.723Z,15.00
2022-10-18T15:28:08.924Z,12.05
2022-10-18T15:30:44.466Z,15.98
2022-10-18T15:33:24.397Z,18.40
2022-10-18T15:35:55.045Z,12.43
2022-10-18T15:38:34.182Z,15.63
2022-10-18T15:41:04.966Z,12.10
2022-10-18T15:43:52.006Z,12.27
2022-10-18T15:46:35.592Z,12.13
2022-10-18T15:49:40.577Z,9.57
2022-10-18T15:52:43.595Z,12.50
2022-10-18T15:55:46.054Z,14.63
2022-10-18T15:58:18.179Z,12.52
2022-10-18T16:00:48.539Z,9.35
2022-10-18T16:03:17.668Z,14.38
2022-10-18T16:05:45.826Z,22.73
2022-10-18T16:08:21.851Z,16.03
2022-10-18T16:10:49.754Z,15.85
2022-10-18T16:13:17.495Z,19.02
2022-10-18T16:15:45.340Z,20.95
2022-10-18T16:18:18.473Z,17.80
2022-10-18T16:20:47.060Z,17.88
2022-10-18T16:23:21.506Z,14.75
2022-10-18T16:25:49.716Z,12.83
2022-10-18T16:28:19.303Z,15.15
2022-10-18T16:30:54.390Z,12.32
2022-10-18T16:33:23.886Z,19.87
2022-10-18T16:35:51.958Z,15.85
2022-10-18T16:38:32.519Z,12.30
2022-10-18T16:41:04.113Z,17.75
2022-10-18T16:43:32.166Z,13.45
2022-10-18T16:46:00.428Z,15.17
2022-10-18T16:48:32.048Z,11.18
2022-10-18T16:51:00.251Z,17.95
2022-10-18T16:53:28.753Z,11.27
2022-10-18T16:55:58.889Z,13.68
2022-10-18T16:58:28.300Z,14.47
2022-10-18T17:00:56.539Z,18.17
2022-10-18T17:03:24.695Z,13.07
2022-10-18T17:05:53.910Z,8.47
2022-10-18T17:08:23.861Z,15.90
2022-10-18T17:10:53.547Z,15.00
2022-10-18T17:13:21.832Z,17.67
2022-10-18T17:15:50.620Z,14.77
2022-10-18T17:18:21.769Z,17.00
2022-10-18T17:20:50.907Z,12.77
2022-10-18T17:23:20.020Z,11.00
2022-10-18T17:25:59.129Z,13.40
2022-10-18T17:28:35.166Z,10.18
2022-10-18T17:31:03.016Z,11.77
2022-10-18T17:33:30.846Z,14.32
2022-10-18T17:35:58.576Z,12.68
2022-10-18T17:38:27.696Z,13.50
2022-10-18T17:40:56.772Z,17.98
2022-10-18T17:43:24.666Z,15.85
2022-10-18T17:45:56.164Z,10.30
2022-10-18T17:48:24.916Z,12.30
2022-10-18T17:50:52.687Z,11.52
2022-10-18T17:53:22.889Z,13.70
2022-10-18T17:56:01.237Z,13.68
2022-10-18T17:58:30.007Z,12.68
2022-10-18T18:00:57.801Z,14.98
2022-10-18T18:03:25.518Z,13.02
2022-10-18T18:05:53.253Z,14.98
2022-10-18T18:08:20.924Z,17.73
2022-10-18T18:13:22.621Z,15.25
2022-10-18T18:15:50.331Z,16.63
2022-10-18T18:18:18.043Z,17.25
2022-10-18T18:20:53.340Z,16.07
2022-10-18T18:23:22.856Z,14.90
2022-10-18T18:25:56.492Z,16.13
2022-10-18T18:28:26.159Z,14.50
2022-10-18T18:30:53.955Z,18.80
2022-10-18T18:33:21.688Z,15.83
2022-10-18T18:35:56.219Z,15.03
2022-10-18T18:38:24.055Z,11.07
2022-10-18T18:40:52.015Z,13.93
2022-10-18T18:43:23.163Z,15.17
2022-10-18T18:45:53.019Z,15.83
2022-10-18T18:48:20.718Z,13.07
2022-10-18T18:50:50.572Z,13.87
2022-10-18T18:53:18.795Z,18.63
2022-10-18T18:55:47.727Z,17.90
2022-10-18T18:58:15.387Z,14.60
2022-10-18T19:00:44.617Z,17.97
2022-10-18T19:03:13.769Z,14.03
2022-10-18T19:05:41.585Z,13.63
2022-10-18T19:08:09.266Z,18.87
2022-10-18T19:10:36.998Z,17.10
2022-10-18T19:13:09.617Z,18.10
2022-10-18T19:15:37.426Z,14.07
2022-10-18T19:18:05.644Z,15.80
2022-10-18T19:20:34.708Z,14.47
2022-10-18T19:23:02.432Z,14.23
2022-10-18T19:25:30.349Z,12.20
2022-10-18T19:27:58.092Z,16.80
2022-10-18T19:30:25.946Z,10.90
2022-10-18T19:33:01.147Z,12.23
2022-10-18T19:35:31.250Z,14.63
2022-10-18T19:38:00.305Z,15.53
2022-10-18T19:40:28.010Z,13.00
2022-10-18T19:42:55.812Z,12.43
2022-10-18T19:45:23.651Z,16.20
2022-10-18T19:47:51.292Z,12.83
2022-10-18T19:50:19.967Z,14.43
2022-10-18T19:52:47.911Z,11.93
2022-10-18T19:55:19.695Z,13.47
2022-10-18T19:57:48.793Z,11.98
2022-10-18T20:00:19.422Z,12.03
2022-10-18T20:02:47.771Z,12.63
2022-10-18T20:05:15.544Z,14.67
2022-10-18T20:07:45.205Z,11.10
2022-10-18T20:10:13.140Z,13.00
2022-10-18T20:12:42.300Z,16.00
2022-10-18T20:15:11.304Z,16.20
2022-10-18T20:17:41.660Z,16.03
2022-10-18T20:20:10.477Z,15.27
2022-10-18T20:22:38.597Z,10.80
2022-10-18T20:25:11.890Z,8.03
2022-10-18T20:27:41.409Z,13.03
2022-10-18T20:30:11.674Z,10.17
2022-10-18T20:32:39.627Z,11.60
2022-10-18T20:35:07.844Z,14.77
2022-10-18T20:37:35.849Z,12.63
2022-10-18T20:40:03.723Z,11.98
2022-10-18T20:42:31.380Z,11.90
2022-10-18T20:44:59.094Z,11.83
2022-10-18T20:47:28.207Z,11.10
2022-10-18T20:49:55.917Z,13.03
2022-10-18T20:52:23.690Z,11.57
2022-10-18T20:54:51.451Z,13.97
2022-10-18T20:57:19.354Z,12.73
2022-10-18T20:59:47.084Z,14.67
2022-10-18T21:02:15.243Z,16.23
2022-10-18T21:04:44.368Z,12.93
2022-10-18T21:07:15.370Z,14.63
2022-10-18T21:09:43.062Z,17.57
2022-10-18T21:14:43.514Z,13.37
2022-10-18T21:17:11.279Z,12.17
2022-10-18T21:19:39.259Z,12.40
2022-10-18T21:22:08.427Z,14.10
2022-10-18T21:24:36.509Z,14.53
2022-10-18T21:27:07.539Z,16.37
2022-10-18T21:29:35.264Z,13.40
2022-10-18T21:32:03.162Z,13.97
2022-10-18T21:34:30.895Z,17.60
2022-10-18T21:36:58.876Z,13.73
2022-10-18T21:39:28.066Z,11.97
2022-10-18T21:41:55.790Z,10.43
2022-10-18T21:44:23.860Z,9.80
2022-10-18T21:46:52.288Z,13.23
2022-10-18T21:49:20.375Z,13.57
2022-10-18T21:51:48.075Z,9.10
2022-10-18T21:54:17.247Z,10.50
2022-10-18T21:56:46.433Z,10.33
2022-10-18T21:59:14.308Z,13.87
2022-10-18T22:01:43.540Z,15.17
2022-10-18T22:04:19.471Z,12.20
2022-10-18T22:06:47.337Z,13.13
2022-10-18T22:09:15.163Z,18.57
2022-10-18T22:11:45.510Z,16.70
2022-10-18T22:14:14.577Z,11.00
2022-10-18T22:16:42.380Z,14.90
2022-10-18T22:19:10.067Z,13.03
2022-10-18T22:21:37.865Z,13.17
2022-10-18T22:24:07.719Z,12.87
2022-10-18T22:26:37.075Z,16.37
2022-10-18T22:29:07.208Z,17.37
2022-10-18T22:31:38.317Z,11.17
2022-10-18T22:34:08.910Z,12.30
2022-10-18T22:36:36.966Z,12.70
2022-10-18T22:39:05.974Z,18.17
2022-10-18T22:41:34.008Z,12.00
2022-10-18T22:44:03.587Z,15.47
2022-10-18T22:46:32.414Z,14.60
2022-10-18T22:49:01.539Z,9.20
2022-10-18T22:51:29.314Z,10.47
2022-10-18T22:53:57.034Z,14.30
2022-10-18T22:56:25.083Z,14.63
2022-10-18T22:58:53.320Z,15.50
2022-10-18T23:01:23.059Z,15.03
2022-10-18T23:03:54.116Z,12.10
2022-10-18T23:06:25.287Z,11.93
2022-10-18T23:08:54.784Z,9.83
2022-10-18T23:11:23.448Z,10.40
2022-10-18T23:13:51.180Z,13.40
2022-10-18T23:16:19.219Z,11.60
2022-10-18T23:18:50.570Z,11.33
2022-10-18T23:21:18.306Z,9.50
2022-10-18T23:23:48.028Z,12.20
2022-10-18T23:26:18.614Z,13.20
2022-10-18T23:28:48.133Z,10.03
2022-10-18T23:31:18.834Z,8.93
2022-10-18T23:33:48.266Z,14.40
2022-10-18T23:36:16.742Z,17.37
2022-10-18T23:38:44.738Z,9.53
2022-10-18T23:41:15.718Z,13.70
2022-10-18T23:43:43.710Z,7.40
2022-10-18T23:46:12.277Z,11.00
2022-10-18T23:48:40.647Z,10.70
2022-10-18T23:51:08.799Z,10.20
2022-10-18T23:53:36.878Z,7.23
2022-10-18T23:56:06.586Z,12.97
2022-10-18T23:58:36.588Z,10.93
